sensor_id;sensor_type;location;lat;lon;timestamp;P1;durP1;ratioP1;P2;durP2;ratioP2
55362;SDS011;41244;49.242;9.060;2022-08-19T00:01:48;17.70;;;15.95;;
55362;SDS011;41244;49.242;9.060;2022-08-19T00:04:16;17.02;;;15.43;;
55362;SDS011;41244;49.242;9.060;2022-08-19T00:06:43;16.92;;;15.23;;
55362;SDS011;41244;49.242;9.060;2022-08-19T00:09:13;17.27;;;15.77;;
55362;SDS011;41244;49.242;9.060;2022-08-19T00:11:41;16.30;;;14.88;;
55362;SDS011;41244;49.242;9.060;2022-08-19T00:14:09;17.50;;;15.65;;
55362;SDS011;41244;49.242;9.060;2022-08-19T00:16:37;17.90;;;16.10;;
55362;SDS011;41244;49.242;9.060;2022-08-19T00:19:06;17.58;;;15.90;;
55362;SDS011;41244;49.242;9.060;2022-08-19T00:21:32;17.75;;;16.15;;
55362;SDS011;41244;49.242;9.060;2022-08-19T00:24:03;17.67;;;16.05;;
55362;SDS011;41244;49.242;9.060;2022-08-19T00:26:29;16.98;;;15.48;;
55362;SDS011;41244;49.242;9.060;2022-08-19T00:28:55;16.77;;;15.25;;
55362;SDS011;41244;49.242;9.060;2022-08-19T00:31:21;17.00;;;15.50;;
55362;SDS011;41244;49.242;9.060;2022-08-19T00:33:47;17.80;;;16.10;;
55362;SDS011;41244;49.242;9.060;2022-08-19T00:36:16;16.90;;;15.40;;
55362;SDS011;41244;49.242;9.060;2022-08-19T00:38:44;18.83;;;17.02;;
55362;SDS011;41244;49.242;9.060;2022-08-19T00:41:12;17.77;;;15.98;;
55362;SDS011;41244;49.242;9.060;2022-08-19T00:43:40;18.10;;;16.30;;
55362;SDS011;41244;49.242;9.060;2022-08-19T00:46:06;19.77;;;18.08;;
55362;SDS011;41244;49.242;9.060;2022-08-19T00:48:32;17.58;;;15.95;;
55362;SDS011;41244;49.242;9.060;2022-08-19T00:50:59;19.00;;;17.40;;
55362;SDS011;41244;49.242;9.060;2022-08-19T00:53:27;19.10;;;17.30;;
55362;SDS011;41244;49.242;9.060;2022-08-19T00:55:55;17.88;;;16.10;;
55362;SDS011;41244;49.242;9.060;2022-08-19T00:58:28;18.67;;;16.95;;
55362;SDS011;41244;49.242;9.060;2022-08-19T01:00:56;18.35;;;16.75;;
55362;SDS011;41244;49.242;9.060;2022-08-19T01:03:22;18.42;;;16.83;;
55362;SDS011;41244;49.242;9.060;2022-08-19T01:05:49;18.00;;;16.30;;
55362;SDS011;41244;49.242;9.060;2022-08-19T01:08:17;19.10;;;17.35;;
55362;SDS011;41244;49.242;9.060;2022-08-19T01:10:46;18.50;;;16.90;;
55362;SDS011;41244;49.242;9.060;2022-08-19T01:13:23;18.52;;;16.83;;
55362;SDS011;41244;49.242;9.060;2022-08-19T01:15:58;19.42;;;17.73;;
55362;SDS011;41244;49.242;9.060;2022-08-19T01:20:58;18.65;;;16.95;;
55362;SDS011;41244;49.242;9.060;2022-08-19T01:23:27;19.17;;;17.48;;
55362;SDS011;41244;49.242;9.060;2022-08-19T01:26:08;20.25;;;18.23;;
55362;SDS011;41244;49.242;9.060;2022-08-19T01:28:44;19.77;;;18.02;;
55362;SDS011;41244;49.242;9.060;2022-08-19T01:31:13;22.33;;;20.02;;
55362;SDS011;41244;49.242;9.060;2022-08-19T01:33:42;20.35;;;18.33;;
55362;SDS011;41244;49.242;9.060;2022-08-19T01:36:09;21.10;;;18.90;;
55362;SDS011;41244;49.242;9.060;2022-08-19T01:38:50;21.70;;;19.45;;
55362;SDS011;41244;49.242;9.060;2022-08-19T01:41:17;20.33;;;18.33;;
55362;SDS011;41244;49.242;9.060;2022-08-19T01:43:43;21.63;;;19.52;;
55362;SDS011;41244;49.242;9.060;2022-08-19T01:46:09;20.17;;;18.27;;
55362;SDS011;41244;49.242;9.060;2022-08-19T01:48:37;21.02;;;18.83;;
55362;SDS011;41244;49.242;9.060;2022-08-19T01:51:06;21.67;;;19.38;;
55362;SDS011;41244;49.242;9.060;2022-08-19T01:53:32;22.15;;;19.77;;
55362;SDS011;41244;49.242;9.060;2022-08-19T01:55:59;24.67;;;21.80;;
55362;SDS011;41244;49.242;9.060;2022-08-19T01:58:27;23.42;;;20.92;;
55362;SDS011;41244;49.242;9.060;2022-08-19T02:01:11;24.35;;;22.02;;
55362;SDS011;41244;49.242;9.060;2022-08-19T02:03:37;23.58;;;21.33;;
55362;SDS011;41244;49.242;9.060;2022-08-19T02:06:03;25.52;;;22.83;;
55362;SDS011;41244;49.242;9.060;2022-08-19T02:08:30;24.45;;;22.08;;
55362;SDS011;41244;49.242;9.060;2022-08-19T02:10:58;25.85;;;23.20;;
55362;SDS011;41244;49.242;9.060;2022-08-19T02:13:25;26.38;;;23.67;;
55362;SDS011;41244;49.242;9.060;2022-08-19T02:15:51;24.35;;;21.77;;
55362;SDS011;41244;49.242;9.060;2022-08-19T02:18:17;24.55;;;22.05;;
55362;SDS011;41244;49.242;9.060;2022-08-19T02:20:43;24.17;;;21.73;;
55362;SDS011;41244;49.242;9.060;2022-08-19T02:23:10;25.13;;;22.52;;
55362;SDS011;41244;49.242;9.060;2022-08-19T02:25:37;23.08;;;20.67;;
55362;SDS011;41244;49.242;9.060;2022-08-19T02:28:03;23.30;;;20.95;;
55362;SDS011;41244;49.242;9.060;2022-08-19T02:30:30;23.38;;;20.95;;
55362;SDS011;41244;49.242;9.060;2022-08-19T02:32:56;23.55;;;21.25;;
55362;SDS011;41244;49.242;9.060;2022-08-19T02:35:22;24.23;;;21.80;;
55362;SDS011;41244;49.242;9.060;2022-08-19T02:37:49;24.65;;;22.05;;
55362;SDS011;41244;49.242;9.060;2022-08-19T02:40:33;24.63;;;22.02;;
55362;SDS011;41244;49.242;9.060;2022-08-19T02:43:00;24.40;;;21.90;;
55362;SDS011;41244;49.242;9.060;2022-08-19T02:45:33;25.10;;;22.50;;
55362;SDS011;41244;49.242;9.060;2022-08-19T02:48:03;25.48;;;22.80;;
55362;SDS011;41244;49.242;9.060;2022-08-19T02:50:29;24.80;;;22.17;;
55362;SDS011;41244;49.242;9.060;2022-08-19T02:52:56;24.00;;;21.40;;
55362;SDS011;41244;49.242;9.060;2022-08-19T02:55:22;23.33;;;20.92;;
55362;SDS011;41244;49.242;9.060;2022-08-19T02:57:48;26.08;;;21.90;;
55362;SDS011;41244;49.242;9.060;2022-08-19T03:00:14;25.52;;;21.70;;
55362;SDS011;41244;49.242;9.060;2022-08-19T03:02:41;24.33;;;21.98;;
55362;SDS011;41244;49.242;9.060;2022-08-19T03:05:07;23.85;;;21.48;;
55362;SDS011;41244;49.242;9.060;2022-08-19T03:07:35;24.77;;;22.13;;
55362;SDS011;41244;49.242;9.060;2022-08-19T03:10:02;24.73;;;22.15;;
55362;SDS011;41244;49.242;9.060;2022-08-19T03:12:29;22.92;;;20.30;;
55362;SDS011;41244;49.242;9.060;2022-08-19T03:14:55;24.52;;;21.90;;
55362;SDS011;41244;49.242;9.060;2022-08-19T03:17:21;26.02;;;21.10;;
55362;SDS011;41244;49.242;9.060;2022-08-19T03:19:47;23.55;;;21.05;;
55362;SDS011;41244;49.242;9.060;2022-08-19T03:22:13;23.83;;;21.48;;
55362;SDS011;41244;49.242;9.060;2022-08-19T03:24:39;25.55;;;21.48;;
55362;SDS011;41244;49.242;9.060;2022-08-19T03:27:05;22.65;;;20.40;;
55362;SDS011;41244;49.242;9.060;2022-08-19T03:29:31;23.27;;;20.88;;
55362;SDS011;41244;49.242;9.060;2022-08-19T03:31:58;22.50;;;20.20;;
55362;SDS011;41244;49.242;9.060;2022-08-19T03:34:28;24.13;;;21.75;;
55362;SDS011;41244;49.242;9.060;2022-08-19T03:36:56;25.08;;;22.48;;
55362;SDS011;41244;49.242;9.060;2022-08-19T03:39:24;26.85;;;22.92;;
55362;SDS011;41244;49.242;9.060;2022-08-19T03:41:50;24.45;;;22.10;;
55362;SDS011;41244;49.242;9.060;2022-08-19T03:44:21;28.80;;;23.30;;
55362;SDS011;41244;49.242;9.060;2022-08-19T03:46:53;27.33;;;23.38;;
55362;SDS011;41244;49.242;9.060;2022-08-19T03:49:23;26.45;;;23.60;;
55362;SDS011;41244;49.242;9.060;2022-08-19T03:51:55;24.45;;;21.95;;
55362;SDS011;41244;49.242;9.060;2022-08-19T03:54:23;24.13;;;21.52;;
55362;SDS011;41244;49.242;9.060;2022-08-19T03:56:50;24.15;;;21.63;;
55362;SDS011;41244;49.242;9.060;2022-08-19T03:59:23;24.40;;;21.95;;
55362;SDS011;41244;49.242;9.060;2022-08-19T04:01:53;23.23;;;20.83;;
55362;SDS011;41244;49.242;9.060;2022-08-19T04:04:24;23.40;;;21.00;;
55362;SDS011;41244;49.242;9.060;2022-08-19T04:06:50;24.08;;;21.48;;
55362;SDS011;41244;49.242;9.060;2022-08-19T04:09:17;23.55;;;21.23;;
55362;SDS011;41244;49.242;9.060;2022-08-19T04:11:48;25.35;;;21.92;;
55362;SDS011;41244;49.242;9.060;2022-08-19T04:14:19;23.20;;;20.88;;
55362;SDS011;41244;49.242;9.060;2022-08-19T04:16:49;23.30;;;20.90;;
55362;SDS011;41244;49.242;9.060;2022-08-19T04:19:15;23.85;;;21.35;;
55362;SDS011;41244;49.242;9.060;2022-08-19T04:21:43;23.00;;;20.60;;
55362;SDS011;41244;49.242;9.060;2022-08-19T04:24:12;24.27;;;21.80;;
55362;SDS011;41244;49.242;9.060;2022-08-19T04:26:39;23.92;;;21.35;;
55362;SDS011;41244;49.242;9.060;2022-08-19T04:29:09;24.25;;;21.67;;
55362;SDS011;41244;49.242;9.060;2022-08-19T04:31:39;23.30;;;20.90;;
55362;SDS011;41244;49.242;9.060;2022-08-19T04:34:07;24.95;;;22.25;;
55362;SDS011;41244;49.242;9.060;2022-08-19T04:36:37;25.80;;;22.27;;
55362;SDS011;41244;49.242;9.060;2022-08-19T04:39:10;30.70;;;23.10;;
55362;SDS011;41244;49.242;9.060;2022-08-19T04:41:40;31.42;;;26.35;;
55362;SDS011;41244;49.242;9.060;2022-08-19T04:44:25;28.65;;;22.95;;
55362;SDS011;41244;49.242;9.060;2022-08-19T04:46:51;27.33;;;21.38;;
55362;SDS011;41244;49.242;9.060;2022-08-19T04:49:19;24.85;;;21.65;;
55362;SDS011;41244;49.242;9.060;2022-08-19T04:51:50;25.02;;;22.33;;
55362;SDS011;41244;49.242;9.060;2022-08-19T04:54:18;24.00;;;21.20;;
55362;SDS011;41244;49.242;9.060;2022-08-19T04:56:47;23.58;;;20.83;;
55362;SDS011;41244;49.242;9.060;2022-08-19T04:59:17;25.35;;;22.15;;
55362;SDS011;41244;49.242;9.060;2022-08-19T05:01:45;23.65;;;21.15;;
55362;SDS011;41244;49.242;9.060;2022-08-19T05:04:15;23.27;;;20.08;;
55362;SDS011;41244;49.242;9.060;2022-08-19T05:06:45;23.45;;;21.05;;
55362;SDS011;41244;49.242;9.060;2022-08-19T05:09:13;23.00;;;20.52;;
55362;SDS011;41244;49.242;9.060;2022-08-19T05:11:40;26.67;;;23.85;;
55362;SDS011;41244;49.242;9.060;2022-08-19T05:14:07;23.27;;;20.75;;
55362;SDS011;41244;49.242;9.060;2022-08-19T05:16:34;22.67;;;20.38;;
55362;SDS011;41244;49.242;9.060;2022-08-19T05:19:00;23.67;;;21.17;;
55362;SDS011;41244;49.242;9.060;2022-08-19T05:21:45;23.45;;;20.95;;
55362;SDS011;41244;49.242;9.060;2022-08-19T05:24:30;22.85;;;20.42;;
55362;SDS011;41244;49.242;9.060;2022-08-19T05:26:59;23.20;;;20.20;;
55362;SDS011;41244;49.242;9.060;2022-08-19T05:29:26;22.67;;;20.10;;
55362;SDS011;41244;49.242;9.060;2022-08-19T05:31:53;24.95;;;20.77;;
55362;SDS011;41244;49.242;9.060;2022-08-19T05:34:20;22.23;;;19.83;;
55362;SDS011;41244;49.242;9.060;2022-08-19T05:36:50;22.27;;;20.02;;
55362;SDS011;41244;49.242;9.060;2022-08-19T05:39:21;22.65;;;20.08;;
55362;SDS011;41244;49.242;9.060;2022-08-19T05:41:48;21.50;;;19.33;;
55362;SDS011;41244;49.242;9.060;2022-08-19T05:44:16;20.63;;;18.52;;
55362;SDS011;41244;49.242;9.060;2022-08-19T05:46:43;21.48;;;18.63;;
55362;SDS011;41244;49.242;9.060;2022-08-19T05:49:12;21.33;;;19.08;;
55362;SDS011;41244;49.242;9.060;2022-08-19T05:51:40;21.92;;;18.45;;
55362;SDS011;41244;49.242;9.060;2022-08-19T05:54:06;19.60;;;17.67;;
55362;SDS011;41244;49.242;9.060;2022-08-19T05:56:34;19.77;;;17.65;;
55362;SDS011;41244;49.242;9.060;2022-08-19T05:59:08;20.98;;;18.77;;
55362;SDS011;41244;49.242;9.060;2022-08-19T06:01:40;20.30;;;18.10;;
55362;SDS011;41244;49.242;9.060;2022-08-19T06:04:09;20.33;;;18.20;;
55362;SDS011;41244;49.242;9.060;2022-08-19T06:06:36;20.70;;;18.50;;
55362;SDS011;41244;49.242;9.060;2022-08-19T06:09:02;26.92;;;23.58;;
55362;SDS011;41244;49.242;9.060;2022-08-19T06:11:35;25.17;;;20.63;;
55362;SDS011;41244;49.242;9.060;2022-08-19T06:14:08;28.30;;;22.08;;
55362;SDS011;41244;49.242;9.060;2022-08-19T06:16:37;20.92;;;18.67;;
55362;SDS011;41244;49.242;9.060;2022-08-19T06:19:06;19.85;;;17.38;;
55362;SDS011;41244;49.242;9.060;2022-08-19T06:21:35;21.25;;;18.98;;
55362;SDS011;41244;49.242;9.060;2022-08-19T06:24:04;19.33;;;17.25;;
55362;SDS011;41244;49.242;9.060;2022-08-19T06:26:32;20.67;;;17.83;;
55362;SDS011;41244;49.242;9.060;2022-08-19T06:29:08;19.52;;;16.80;;
55362;SDS011;41244;49.242;9.060;2022-08-19T06:31:36;18.10;;;15.93;;
55362;SDS011;41244;49.242;9.060;2022-08-19T06:34:04;17.85;;;15.38;;
55362;SDS011;41244;49.242;9.060;2022-08-19T06:36:32;18.52;;;16.42;;
55362;SDS011;41244;49.242;9.060;2022-08-19T06:39:03;20.23;;;16.23;;
55362;SDS011;41244;49.242;9.060;2022-08-19T06:41:34;19.42;;;15.45;;
55362;SDS011;41244;49.242;9.060;2022-08-19T06:44:06;19.75;;;15.13;;
55362;SDS011;41244;49.242;9.060;2022-08-19T06:46:32;17.73;;;15.93;;
55362;SDS011;41244;49.242;9.060;2022-08-19T06:48:58;24.13;;;19.73;;
55362;SDS011;41244;49.242;9.060;2022-08-19T06:51:24;19.70;;;17.70;;
55362;SDS011;41244;49.242;9.060;2022-08-19T06:53:51;18.20;;;15.60;;
55362;SDS011;41244;49.242;9.060;2022-08-19T06:56:24;17.52;;;15.23;;
55362;SDS011;41244;49.242;9.060;2022-08-19T06:59:07;16.15;;;14.52;;
55362;SDS011;41244;49.242;9.060;2022-08-19T07:01:45;16.52;;;14.85;;
55362;SDS011;41244;49.242;9.060;2022-08-19T07:04:18;16.70;;;15.03;;
55362;SDS011;41244;49.242;9.060;2022-08-19T07:06:48;17.63;;;15.13;;
55362;SDS011;41244;49.242;9.060;2022-08-19T07:09:15;16.40;;;14.75;;
55362;SDS011;41244;49.242;9.060;2022-08-19T07:11:43;16.05;;;14.43;;
55362;SDS011;41244;49.242;9.060;2022-08-19T07:14:16;18.50;;;14.48;;
55362;SDS011;41244;49.242;9.060;2022-08-19T07:16:49;15.95;;;14.20;;
55362;SDS011;41244;49.242;9.060;2022-08-19T07:19:17;15.25;;;13.70;;
55362;SDS011;41244;49.242;9.060;2022-08-19T07:21:44;18.85;;;14.65;;
55362;SDS011;41244;49.242;9.060;2022-08-19T07:24:12;17.10;;;13.75;;
55362;SDS011;41244;49.242;9.060;2022-08-19T07:26:40;15.65;;;14.00;;
55362;SDS011;41244;49.242;9.060;2022-08-19T07:29:08;15.52;;;14.00;;
55362;SDS011;41244;49.242;9.060;2022-08-19T07:31:35;15.23;;;13.52;;
55362;SDS011;41244;49.242;9.060;2022-08-19T07:34:02;18.52;;;13.82;;
55362;SDS011;41244;49.242;9.060;2022-08-19T07:36:33;16.00;;;14.35;;
55362;SDS011;41244;49.242;9.060;2022-08-19T07:39:05;15.68;;;13.60;;
55362;SDS011;41244;49.242;9.060;2022-08-19T07:41:53;15.05;;;13.65;;
55362;SDS011;41244;49.242;9.060;2022-08-19T07:44:20;14.05;;;12.68;;
55362;SDS011;41244;49.242;9.060;2022-08-19T07:46:48;15.55;;;13.95;;
55362;SDS011;41244;49.242;9.060;2022-08-19T07:49:17;15.30;;;13.45;;
55362;SDS011;41244;49.242;9.060;2022-08-19T07:51:51;33.50;;;25.63;;
55362;SDS011;41244;49.242;9.060;2022-08-19T07:54:25;65.57;;;49.40;;
55362;SDS011;41244;49.242;9.060;2022-08-19T07:56:53;15.32;;;13.43;;
55362;SDS011;41244;49.242;9.060;2022-08-19T07:59:21;17.50;;;14.25;;
55362;SDS011;41244;49.242;9.060;2022-08-19T08:01:48;15.45;;;12.80;;
55362;SDS011;41244;49.242;9.060;2022-08-19T08:04:15;15.68;;;13.07;;
55362;SDS011;41244;49.242;9.060;2022-08-19T08:07:01;14.15;;;12.75;;
55362;SDS011;41244;49.242;9.060;2022-08-19T08:09:47;14.52;;;13.05;;
55362;SDS011;41244;49.242;9.060;2022-08-19T08:12:16;14.18;;;12.70;;
55362;SDS011;41244;49.242;9.060;2022-08-19T08:14:54;15.07;;;12.40;;
55362;SDS011;41244;49.242;9.060;2022-08-19T08:17:23;15.48;;;12.70;;
55362;SDS011;41244;49.242;9.060;2022-08-19T08:19:52;14.00;;;12.60;;
55362;SDS011;41244;49.242;9.060;2022-08-19T08:22:18;14.27;;;12.63;;
55362;SDS011;41244;49.242;9.060;2022-08-19T08:25:09;14.35;;;12.85;;
55362;SDS011;41244;49.242;9.060;2022-08-19T08:27:42;14.55;;;12.43;;
55362;SDS011;41244;49.242;9.060;2022-08-19T08:30:16;13.73;;;12.43;;
55362;SDS011;41244;49.242;9.060;2022-08-19T08:32:45;15.32;;;12.57;;
55362;SDS011;41244;49.242;9.060;2022-08-19T08:35:13;15.10;;;12.35;;
55362;SDS011;41244;49.242;9.060;2022-08-19T08:37:41;13.70;;;12.20;;
55362;SDS011;41244;49.242;9.060;2022-08-19T08:40:33;13.48;;;11.98;;
55362;SDS011;41244;49.242;9.060;2022-08-19T08:43:03;13.85;;;11.27;;
55362;SDS011;41244;49.242;9.060;2022-08-19T08:45:32;12.57;;;11.30;;
55362;SDS011;41244;49.242;9.060;2022-08-19T08:48:03;13.63;;;11.70;;
55362;SDS011;41244;49.242;9.060;2022-08-19T08:50:43;14.63;;;10.57;;
55362;SDS011;41244;49.242;9.060;2022-08-19T08:53:12;15.50;;;13.57;;
55362;SDS011;41244;49.242;9.060;2022-08-19T08:55:40;13.05;;;10.55;;
55362;SDS011;41244;49.242;9.060;2022-08-19T08:58:09;12.63;;;11.32;;
55362;SDS011;41244;49.242;9.060;2022-08-19T09:00:53;13.52;;;12.05;;
55362;SDS011;41244;49.242;9.060;2022-08-19T09:03:20;11.82;;;10.60;;
55362;SDS011;41244;49.242;9.060;2022-08-19T09:11:03;12.57;;;10.18;;
55362;SDS011;41244;49.242;9.060;2022-08-19T09:16:28;10.10;;;8.85;;
55362;SDS011;41244;49.242;9.060;2022-08-19T09:18:56;9.00;;;8.00;;
55362;SDS011;41244;49.242;9.060;2022-08-19T09:21:27;10.82;;;9.05;;
55362;SDS011;41244;49.242;9.060;2022-08-19T09:23:54;15.50;;;8.32;;
55362;SDS011;41244;49.242;9.060;2022-08-19T09:26:21;9.98;;;7.90;;
55362;SDS011;41244;49.242;9.060;2022-08-19T09:28:48;7.90;;;7.10;;
55362;SDS011;41244;49.242;9.060;2022-08-19T09:31:18;11.05;;;8.35;;
55362;SDS011;41244;49.242;9.060;2022-08-19T09:33:50;8.13;;;7.10;;
55362;SDS011;41244;49.242;9.060;2022-08-19T09:36:17;9.80;;;7.78;;
55362;SDS011;41244;49.242;9.060;2022-08-19T09:38:47;8.75;;;7.72;;
55362;SDS011;41244;49.242;9.060;2022-08-19T09:41:17;7.50;;;6.70;;
55362;SDS011;41244;49.242;9.060;2022-08-19T09:43:46;8.07;;;7.13;;
55362;SDS011;41244;49.242;9.060;2022-08-19T09:46:16;10.02;;;7.72;;
55362;SDS011;41244;49.242;9.060;2022-08-19T09:48:46;7.80;;;7.00;;
55362;SDS011;41244;49.242;9.060;2022-08-19T09:51:15;10.68;;;7.75;;
55362;SDS011;41244;49.242;9.060;2022-08-19T09:53:45;9.35;;;8.02;;
55362;SDS011;41244;49.242;9.060;2022-08-19T09:56:12;8.50;;;7.20;;
55362;SDS011;41244;49.242;9.060;2022-08-19T09:58:39;9.48;;;7.00;;
55362;SDS011;41244;49.242;9.060;2022-08-19T10:01:06;7.60;;;6.80;;
55362;SDS011;41244;49.242;9.060;2022-08-19T10:03:33;8.27;;;6.25;;
55362;SDS011;41244;49.242;9.060;2022-08-19T10:06:01;8.25;;;6.30;;
55362;SDS011;41244;49.242;9.060;2022-08-19T10:08:31;6.72;;;6.03;;
55362;SDS011;41244;49.242;9.060;2022-08-19T10:10:59;7.50;;;6.60;;
55362;SDS011;41244;49.242;9.060;2022-08-19T10:13:27;7.30;;;6.57;;
55362;SDS011;41244;49.242;9.060;2022-08-19T10:15:57;6.70;;;6.05;;
55362;SDS011;41244;49.242;9.060;2022-08-19T10:18:39;6.50;;;5.72;;
55362;SDS011;41244;49.242;9.060;2022-08-19T10:21:12;6.53;;;5.37;;
55362;SDS011;41244;49.242;9.060;2022-08-19T10:23:44;6.60;;;5.32;;
55362;SDS011;41244;49.242;9.060;2022-08-19T10:26:14;7.28;;;5.38;;
55362;SDS011;41244;49.242;9.060;2022-08-19T10:28:42;6.15;;;4.90;;
55362;SDS011;41244;49.242;9.060;2022-08-19T10:31:10;9.02;;;6.00;;
55362;SDS011;41244;49.242;9.060;2022-08-19T10:33:39;6.50;;;5.43;;
55362;SDS011;41244;49.242;9.060;2022-08-19T10:36:10;7.03;;;5.80;;
55362;SDS011;41244;49.242;9.060;2022-08-19T10:38:43;6.32;;;5.72;;
55362;SDS011;41244;49.242;9.060;2022-08-19T10:41:14;11.40;;;5.70;;
55362;SDS011;41244;49.242;9.060;2022-08-19T10:43:43;7.45;;;5.57;;
55362;SDS011;41244;49.242;9.060;2022-08-19T10:46:11;6.10;;;5.30;;
55362;SDS011;41244;49.242;9.060;2022-08-19T10:48:40;7.05;;;6.30;;
55362;SDS011;41244;49.242;9.060;2022-08-19T10:51:10;6.20;;;5.70;;
55362;SDS011;41244;49.242;9.060;2022-08-19T10:53:55;6.65;;;6.03;;
55362;SDS011;41244;49.242;9.060;2022-08-19T10:56:22;6.20;;;5.60;;
55362;SDS011;41244;49.242;9.060;2022-08-19T10:59:06;7.10;;;5.20;;
55362;SDS011;41244;49.242;9.060;2022-08-19T11:01:32;6.80;;;5.65;;
55362;SDS011;41244;49.242;9.060;2022-08-19T11:04:00;7.85;;;5.70;;
55362;SDS011;41244;49.242;9.060;2022-08-19T11:06:27;6.63;;;5.45;;
55362;SDS011;41244;49.242;9.060;2022-08-19T11:08:55;7.15;;;5.90;;
55362;SDS011;41244;49.242;9.060;2022-08-19T11:11:21;8.48;;;5.97;;
55362;SDS011;41244;49.242;9.060;2022-08-19T11:13:47;6.40;;;5.80;;
55362;SDS011;41244;49.242;9.060;2022-08-19T11:16:16;6.05;;;5.53;;
55362;SDS011;41244;49.242;9.060;2022-08-19T11:18:46;7.65;;;6.00;;
55362;SDS011;41244;49.242;9.060;2022-08-19T11:21:24;8.05;;;6.88;;
55362;SDS011;41244;49.242;9.060;2022-08-19T11:23:57;6.50;;;5.80;;
55362;SDS011;41244;49.242;9.060;2022-08-19T11:26:26;7.80;;;6.03;;
55362;SDS011;41244;49.242;9.060;2022-08-19T11:28:52;5.75;;;5.15;;
55362;SDS011;41244;49.242;9.060;2022-08-19T11:31:31;7.32;;;6.53;;
55362;SDS011;41244;49.242;9.060;2022-08-19T11:34:01;6.35;;;5.68;;
55362;SDS011;41244;49.242;9.060;2022-08-19T11:36:32;6.25;;;5.50;;
55362;SDS011;41244;49.242;9.060;2022-08-19T11:38:59;6.47;;;5.88;;
55362;SDS011;41244;49.242;9.060;2022-08-19T11:41:25;6.00;;;5.43;;
55362;SDS011;41244;49.242;9.060;2022-08-19T11:43:52;6.53;;;5.30;;
55362;SDS011;41244;49.242;9.060;2022-08-19T11:46:21;8.55;;;5.80;;
55362;SDS011;41244;49.242;9.060;2022-08-19T11:48:48;7.15;;;5.40;;
55362;SDS011;41244;49.242;9.060;2022-08-19T11:51:20;7.47;;;5.72;;
55362;SDS011;41244;49.242;9.060;2022-08-19T11:53:49;7.35;;;5.68;;
55362;SDS011;41244;49.242;9.060;2022-08-19T11:56:16;6.38;;;5.78;;
55362;SDS011;41244;49.242;9.060;2022-08-19T11:58:43;6.53;;;6.00;;
55362;SDS011;41244;49.242;9.060;2022-08-19T12:01:10;6.55;;;5.95;;
55362;SDS011;41244;49.242;9.060;2022-08-19T12:03:40;7.35;;;6.00;;
55362;SDS011;41244;49.242;9.060;2022-08-19T12:06:07;6.15;;;5.55;;
55362;SDS011;41244;49.242;9.060;2022-08-19T12:08:37;6.80;;;6.18;;
55362;SDS011;41244;49.242;9.060;2022-08-19T12:11:03;8.43;;;6.18;;
55362;SDS011;41244;49.242;9.060;2022-08-19T12:13:32;8.18;;;6.07;;
55362;SDS011;41244;49.242;9.060;2022-08-19T12:15:59;6.32;;;5.82;;
55362;SDS011;41244;49.242;9.060;2022-08-19T12:18:28;7.20;;;6.13;;
55362;SDS011;41244;49.242;9.060;2022-08-19T12:20:54;6.82;;;6.13;;
55362;SDS011;41244;49.242;9.060;2022-08-19T12:23:20;8.88;;;6.32;;
55362;SDS011;41244;49.242;9.060;2022-08-19T12:25:46;11.13;;;6.35;;
55362;SDS011;41244;49.242;9.060;2022-08-19T12:28:19;6.65;;;5.68;;
55362;SDS011;41244;49.242;9.060;2022-08-19T12:30:47;8.15;;;5.80;;
55362;SDS011;41244;49.242;9.060;2022-08-19T12:33:16;8.68;;;5.90;;
55362;SDS011;41244;49.242;9.060;2022-08-19T12:35:43;7.57;;;6.10;;
55362;SDS011;41244;49.242;9.060;2022-08-19T12:38:12;6.47;;;5.65;;
55362;SDS011;41244;49.242;9.060;2022-08-19T12:40:39;8.45;;;6.00;;
55362;SDS011;41244;49.242;9.060;2022-08-19T12:43:06;7.40;;;6.00;;
55362;SDS011;41244;49.242;9.060;2022-08-19T12:45:33;8.10;;;5.90;;
55362;SDS011;41244;49.242;9.060;2022-08-19T12:47:59;8.00;;;5.60;;
55362;SDS011;41244;49.242;9.060;2022-08-19T12:50:25;8.60;;;5.60;;
55362;SDS011;41244;49.242;9.060;2022-08-19T12:52:51;5.75;;;4.93;;
55362;SDS011;41244;49.242;9.060;2022-08-19T12:55:17;5.45;;;4.95;;
55362;SDS011;41244;49.242;9.060;2022-08-19T12:57:43;7.22;;;5.38;;
55362;SDS011;41244;49.242;9.060;2022-08-19T13:00:11;6.30;;;5.70;;
55362;SDS011;41244;49.242;9.060;2022-08-19T13:02:43;6.28;;;5.40;;
55362;SDS011;41244;49.242;9.060;2022-08-19T13:05:12;6.00;;;5.20;;
55362;SDS011;41244;49.242;9.060;2022-08-19T13:07:41;6.57;;;5.30;;
55362;SDS011;41244;49.242;9.060;2022-08-19T13:10:09;6.72;;;5.22;;
55362;SDS011;41244;49.242;9.060;2022-08-19T13:12:37;7.28;;;5.65;;
55362;SDS011;41244;49.242;9.060;2022-08-19T13:15:04;7.35;;;6.20;;
55362;SDS011;41244;49.242;9.060;2022-08-19T13:17:30;5.78;;;5.25;;
55362;SDS011;41244;49.242;9.060;2022-08-19T13:19:56;6.43;;;5.57;;
55362;SDS011;41244;49.242;9.060;2022-08-19T13:22:22;6.35;;;5.65;;
55362;SDS011;41244;49.242;9.060;2022-08-19T13:24:51;6.45;;;5.38;;
55362;SDS011;41244;49.242;9.060;2022-08-19T13:27:18;6.35;;;5.78;;
55362;SDS011;41244;49.242;9.060;2022-08-19T13:29:44;9.18;;;8.27;;
55362;SDS011;41244;49.242;9.060;2022-08-19T13:32:28;7.57;;;6.90;;
55362;SDS011;41244;49.242;9.060;2022-08-19T13:35:14;7.47;;;6.53;;
55362;SDS011;41244;49.242;9.060;2022-08-19T13:37:41;8.13;;;6.05;;
55362;SDS011;41244;49.242;9.060;2022-08-19T13:40:28;6.40;;;5.80;;
55362;SDS011;41244;49.242;9.060;2022-08-19T13:42:58;7.13;;;6.38;;
55362;SDS011;41244;49.242;9.060;2022-08-19T13:45:26;7.45;;;6.38;;
55362;SDS011;41244;49.242;9.060;2022-08-19T13:47:57;6.55;;;5.95;;
55362;SDS011;41244;49.242;9.060;2022-08-19T13:50:27;7.43;;;6.28;;
55362;SDS011;41244;49.242;9.060;2022-08-19T13:55:22;7.32;;;6.50;;
55362;SDS011;41244;49.242;9.060;2022-08-19T13:57:50;9.35;;;8.32;;
55362;SDS011;41244;49.242;9.060;2022-08-19T14:00:18;7.97;;;7.28;;
55362;SDS011;41244;49.242;9.060;2022-08-19T14:02:50;7.90;;;7.20;;
55362;SDS011;41244;49.242;9.060;2022-08-19T14:05:17;7.85;;;7.25;;
55362;SDS011;41244;49.242;9.060;2022-08-19T14:07:43;8.18;;;7.35;;
55362;SDS011;41244;49.242;9.060;2022-08-19T14:10:10;8.90;;;7.40;;
55362;SDS011;41244;49.242;9.060;2022-08-19T14:12:37;9.50;;;7.78;;
55362;SDS011;41244;49.242;9.060;2022-08-19T14:15:04;9.35;;;7.25;;
55362;SDS011;41244;49.242;9.060;2022-08-19T14:17:32;8.30;;;7.60;;
55362;SDS011;41244;49.242;9.060;2022-08-19T14:20:00;8.25;;;7.45;;
55362;SDS011;41244;49.242;9.060;2022-08-19T14:22:33;8.55;;;7.78;;
55362;SDS011;41244;49.242;9.060;2022-08-19T14:25:03;9.52;;;8.32;;
55362;SDS011;41244;49.242;9.060;2022-08-19T14:27:36;11.13;;;7.57;;
55362;SDS011;41244;49.242;9.060;2022-08-19T14:30:08;10.95;;;7.90;;
55362;SDS011;41244;49.242;9.060;2022-08-19T14:32:43;8.95;;;8.10;;
55362;SDS011;41244;49.242;9.060;2022-08-19T14:35:09;7.90;;;7.20;;
55362;SDS011;41244;49.242;9.060;2022-08-19T14:37:37;7.60;;;6.90;;
55362;SDS011;41244;49.242;9.060;2022-08-19T14:40:05;7.88;;;7.05;;
55362;SDS011;41244;49.242;9.060;2022-08-19T14:42:31;7.43;;;6.78;;
55362;SDS011;41244;49.242;9.060;2022-08-19T14:44:58;8.10;;;7.00;;
55362;SDS011;41244;49.242;9.060;2022-08-19T14:47:25;12.57;;;6.90;;
55362;SDS011;41244;49.242;9.060;2022-08-19T14:49:51;7.40;;;6.70;;
55362;SDS011;41244;49.242;9.060;2022-08-19T14:52:18;7.93;;;6.80;;
55362;SDS011;41244;49.242;9.060;2022-08-19T14:54:44;7.53;;;6.80;;
55362;SDS011;41244;49.242;9.060;2022-08-19T14:57:14;7.93;;;7.13;;